Auburn Hills, Michigan
Current Conditions -  °F | °C
As of 12:15 AM on Tuesday 21 Oct 2014 (Local Time) from KVLL Reporting Station
Broken Clouds Broken Clouds  
Wind Chill: 46°   Ceiling: 5000
Heat Index: 50°   Visibility: 10mi
Dew Point: 46°   Wind: 8mph
Humidity: 86%   Direction: 320°NW
Pressure: 29.89"   Gusts: NA
Location:  42.67°N, 83.22°W
Report Text: KVLL 210415Z AUTO 32007KT 10SM BKN050 BKN120 10/08 A2989 RMK AO2 T00980075
Loading
Personal Weather Stations






























Interactive Weather Map New forecast layout! Learn more

10-Day Weather Forecast

Advertisements
Track Severe Weather on mobile